Flight Track Log - Related Links

Times and Time Zones

All times are in EDT time to prevent confusion due to time zone crossing. See the RPA3228 flight status page for this flight to view local times or setup timezone preferences in your user account.

Time Position Orientation Groundspeed Altitude Reporting Facility
EDT Latitude Longitude Course Direction KTS MPH feet Rate Location/Type
Mon 07:08:26 AM 41.5253 -93.6792 86° East 140 161 1,700  Level Minneapolis Center
Mon 07:09:32 AM 41.4889 -93.7047 208° Southwest 183 211 3,800 1,979 Climbing Minneapolis Center
Mon 07:10:00 AM 41.4642 -93.6853 149° Southeast 208 239 4,800 2,090 Climbing Minneapolis Center
Mon 07:11:00 AM 41.4500 -93.1921 90° East  Level FlightAware Approximate
Mon 07:11:01 AM 41.4594 -93.5744 93° East 294 338 6,900  Level Minneapolis Center
Mon 07:12:00 AM 41.4500 -93.0466 90° East  Level FlightAware Approximate
Mon 07:12:01 AM 41.4642 -93.4597 87° East 311 358 9,100  Level Minneapolis Center
Mon 07:13:00 AM 41.4556 -92.9014 86° East  Level FlightAware Approximate
Mon 07:13:02 AM 41.4686 -93.3369 87° East 329 379 11,500  Level Minneapolis Center
Mon 07:14:02 AM 41.4733 -93.2119 87° East 338 389 13,500 2,033 Climbing Minneapolis Center
Mon 07:15:03 AM 41.4778 -93.0828 87° East 347 399 15,600 2,033 Climbing Minneapolis Center
Mon 07:16:03 AM 41.4817 -92.9511 88° East 355 409 17,600 1,934 Climbing Minneapolis Center
Mon 07:17:04 AM 41.4861 -92.8214 87° East 357 411 19,500 1,574 Climbing Minneapolis Center
Mon 07:18:05 AM 41.4903 -92.6861 88° East 362 417 20,800 1,636 Climbing Minneapolis Center
Mon 07:19:05 AM 41.4947 -92.5417 88° East 379 436 22,800 1,835 Climbing Minneapolis Center
Mon 07:20:06 AM 41.4989 -92.3961 88° East 389 448 24,500 1,623 Climbing Minneapolis Center
Mon 07:21:07 AM 41.5036 -92.2481 88° East 396 456 26,100 1,415 Climbing Minneapolis Center
Mon 07:22:09 AM 41.5075 -92.0906 88° East 406 467 27,400 1,415 Climbing Chicago Center
Mon 07:23:10 AM 41.5114 -91.9364 88° East 418 481 29,000 1,512 Climbing Chicago Center
Mon 07:24:12 AM 41.5150 -91.7850 88° East 415 478 30,500 1,415 Climbing Chicago Center
Mon 07:25:13 AM 41.5194 -91.6047 88° East 410 472 31,900 1,230 Climbing Chicago Center
Mon 07:26:14 AM 41.5231 -91.4550 88° East 409 471 33,000 537 Climbing Chicago Center
Mon 07:27:16 AM 41.5253 -91.3014 89° East 415 478 33,000  Level Chicago Center
Mon 07:28:17 AM 41.5294 -91.1403 88° East 430 495 33,000  Level Chicago Center
Mon 07:29:18 AM 41.5308 -90.9836 89° East 431 496 33,000  Level Chicago Center
Mon 07:30:20 AM 41.5344 -90.8233 88° East 436 502 33,000  Level Chicago Center
Mon 07:31:21 AM 41.5372 -90.6308 89° East 438 504 33,000  Level Chicago Center
Mon 07:32:22 AM 41.5392 -90.4800 89° East 436 502 33,000  Level Chicago Center
Mon 07:33:24 AM 41.5408 -90.3203 89° East 432 497 33,000  Level Chicago Center
Mon 07:34:25 AM 41.5431 -90.1592 89° East 431 496 33,000  Level Chicago Center
Mon 07:35:27 AM 41.5450 -89.9983 89° East 431 496 33,000  Level Chicago Center
Mon 07:36:28 AM 41.5467 -89.8397 89° East 428 493 33,000  Level Chicago Center
Mon 07:37:30 AM 41.5472 -89.6792 90° East 429 494 33,000  Level Chicago Center
Mon 07:38:31 AM 41.5483 -89.4992 89° East 431 496 33,000  Level Chicago Center
Mon 07:39:33 AM 41.5489 -89.3394 90° East 432 497 33,000  Level Chicago Center
Mon 07:40:34 AM 41.5481 -89.1808 90° East 428 493 33,000  Level Chicago Center
Mon 07:41:36 AM 41.5475 -89.0228 90° East 429 494 33,000  Level Chicago Center
Mon 07:42:38 AM 41.5489 -88.8342 89° East 426 490 33,000  Level Chicago Center
Mon 07:43:39 AM 41.5489 -88.6756 90° East 428 493 33,000  Level Chicago Center
Mon 07:44:41 AM 41.5481 -88.5175 90° East 427 491 33,000  Level Chicago Center
Mon 07:45:42 AM 41.5467 -88.3586 91° East 429 494 33,000  Level Chicago Center
Mon 07:46:44 AM 41.5225 -88.2033 102° East 428 493 33,000  Level Chicago Center
Mon 07:47:45 AM 41.4936 -88.0608 105° East 428 493 33,000  Level Chicago Center
Mon 07:48:47 AM 41.4547 -87.8897 107° East 428 493 33,000  Level Chicago Center
Mon 07:49:48 AM 41.4219 -87.7383 106° East 424 488 33,000  Level Chicago Center
Mon 07:50:50 AM 41.3892 -87.5900 106° East 420 483 33,000  Level Chicago Center
Mon 07:51:51 AM 41.3558 -87.4383 106° East 426 490 33,000  Level Chicago Center
Mon 07:52:53 AM 41.3153 -87.2606 107° East 422 486 33,000  Level Chicago Center
Mon 07:53:54 AM 41.2822 -87.1100 106° East 424 488 33,000  Level Chicago Center
Mon 07:54:56 AM 41.2472 -86.9558 107° East 433 498 33,000  Level Chicago Center
Mon 07:55:57 AM 41.2119 -86.8064 107° East 428 493 33,000 439 Level Chicago Center
Mon 07:56:59 AM 41.1767 -86.6539 107° East 422 486 33,900 919 Climbing Chicago Center
Mon 07:58:01 AM 41.1436 -86.5122 107° East 409 471 34,900 537 Climbing Chicago Center
Mon 07:59:02 AM 41.1108 -86.3683 107° East 409 471 35,000 49 Climbing Chicago Center
Mon 08:00:04 AM 41.0750 -86.2206 108° East 422 486 35,000  Level Chicago Center
Mon 08:01:05 AM 41.0411 -86.0731 107° East 422 486 35,000  Level Chicago Center
Mon 08:02:07 AM 40.9994 -85.9006 108° East 417 480 35,000  Level Chicago Center
Mon 08:03:09 AM 40.9656 -85.7561 107° East 415 478 35,000  Level Chicago Center
Mon 08:04:10 AM 40.9311 -85.6161 108° East 405 466 35,000  Level Chicago Center
Mon 08:05:12 AM 40.8961 -85.4736 108° East 409 471 35,000  Level Chicago Center
Mon 08:06:14 AM 40.8614 -85.3300 108° East 411 473 35,000  Level Chicago Center
Mon 08:07:15 AM 40.8256 -85.1825 108° East 422 486 35,000  Level Chicago Center
Mon 08:08:17 AM 40.7833 -85.0106 108° East 416 479 35,000  Level Chicago Center
Mon 08:09:19 AM 40.7481 -84.8675 108° East 415 478 35,000  Level Chicago Center
Mon 08:10:21 AM 40.7122 -84.7264 108° East 410 472 35,000  Level Chicago Center
Mon 08:11:22 AM 40.6767 -84.5850 108° East 409 471 35,000  Level Chicago Center
Mon 08:12:24 AM 40.6417 -84.4444 108° East 407 468 35,000 -290 Level Chicago Center
Mon 08:13:26 AM 40.6050 -84.3044 109° East 406 467 34,400 -897 Descending Chicago Center
Mon 08:13:51 AM 40.5906 -84.2403 106° East 398 458 33,700 -966 Descending Indianapolis Center
Mon 08:14:53 AM 40.5547 -84.1014 109° East 398 458 33,000 -339 Descending Indianapolis Center
Mon 08:15:55 AM 40.5164 -83.9578 109° East 410 472 33,000  Level Indianapolis Center
Mon 08:16:56 AM 40.4739 -83.7906 108° East 410 472 33,000  Level Indianapolis Center
Mon 08:17:58 AM 40.4361 -83.6472 109° East 411 473 33,000  Level Indianapolis Center
Mon 08:18:59 AM 40.3983 -83.5047 109° East 408 470 33,000  Level Indianapolis Center
Mon 08:20:01 AM 40.3606 -83.3606 109° East 412 474 33,000  Level Indianapolis Center
Mon 08:21:03 AM 40.3225 -83.2186 109° East 407 468 33,000  Level Indianapolis Center
Mon 08:22:04 AM 40.2836 -83.0747 109° East 412 474 33,000  Level Indianapolis Center
Mon 08:23:06 AM 40.2447 -82.9328 110° East 411 473 33,000  Level Indianapolis Center
Mon 08:24:08 AM 40.2058 -82.7897 110° East 412 474 33,000  Level Indianapolis Center
Mon 08:25:09 AM 40.1675 -82.6489 110° East 408 470 33,000  Level Indianapolis Center
Mon 08:26:11 AM 40.1278 -82.5100 110° East 405 466 33,000  Level Indianapolis Center
Mon 08:27:13 AM 40.0869 -82.3714 111° Southeast 404 465 33,000  Level Indianapolis Center
Mon 08:28:14 AM 40.0456 -82.2331 111° Southeast 405 466 33,000  Level Indianapolis Center
Mon 08:29:16 AM 40.0042 -82.0956 111° Southeast 403 464 33,000  Level Indianapolis Center
Mon 08:30:18 AM 39.9561 -81.9342 111° Southeast 405 466 33,000  Level Indianapolis Center
Mon 08:31:20 AM 39.9139 -81.7961 112° Southeast 405 466 33,000  Level Indianapolis Center
Mon 08:32:21 AM 39.8731 -81.6581 111° Southeast 407 468 33,000  Level Indianapolis Center
Mon 08:33:20 AM 39.8278 -81.5183 113° Southeast 399 459 33,000  Level Cleveland Center
Mon 08:34:20 AM 39.7911 -81.3856 110° East 393 452 33,000  Level Cleveland Center
Mon 08:35:20 AM 39.7506 -81.2500 111° Southeast 399 459 33,000 -150 Level Cleveland Center
Mon 08:36:20 AM 39.7075 -81.1119 112° Southeast 399 459 32,700 -550 Descending Cleveland Center
Mon 08:37:20 AM 39.6642 -80.9742 112° Southeast 399 459 31,900 -750 Descending Cleveland Center
Mon 08:38:20 AM 39.6208 -80.8392 113° Southeast 399 459 31,200 -450 Descending Cleveland Center
Mon 08:39:20 AM 39.5794 -80.7042 112° Southeast 399 459 31,000 -100 Descending Cleveland Center
Mon 08:40:20 AM 39.5378 -80.5697 112° Southeast 399 459 31,000  Level Cleveland Center
Mon 08:41:20 AM 39.4958 -80.4378 112° Southeast 399 459 31,000  Level Cleveland Center
Mon 08:41:56 AM 39.4711 -80.3636 113° Southeast 396 456 31,000  Level Washington Center
Mon 08:42:56 AM 39.4306 -80.2319 112° Southeast 402 463 31,000  Level Washington Center
Mon 08:43:57 AM 39.3875 -80.1006 113° Southeast 402 463 31,000  Level Washington Center
Mon 08:44:58 AM 39.3444 -79.9717 113° Southeast 397 457 31,000  Level Washington Center
Mon 08:45:58 AM 39.3033 -79.8403 112° Southeast 397 457 31,000  Level Washington Center
Mon 08:46:56 AM 39.2875 -79.6972 98° East 397 457 31,000  Level Washington Center
Mon 08:47:56 AM 39.2756 -79.5544 96° East 392 451 31,000 -99 Level Washington Center
Mon 08:48:57 AM 39.2656 -79.4144 95° East 392 451 30,800  Descending Washington Center
Mon 08:49:58 AM 39.2514 -79.2636 97° East 404 465 31,000 -1,916 Climbing Washington Center
Mon 08:50:56 AM 39.2372 -79.1075 97° East 418 481 27,000 -2,571 Descending Washington Center
Mon 08:51:57 AM 39.2228 -78.9567 97° East 428 493 25,900 -1,623 Descending Washington Center
Mon 08:52:58 AM 39.2100 -78.8114 96° East 423 487 23,700 -1,966 Descending Washington Center
Mon 08:53:56 AM 39.1986 -78.6986 97° East 411 473 22,000 -1,932 Descending Washington Center
Mon 08:54:56 AM 39.1833 -78.5506 98° East 394 453 19,900 -2,033 Descending Washington Center
Mon 08:55:57 AM 39.1700 -78.4161 97° East 382 440 17,900 -1,686 Descending Washington Center
Mon 08:56:57 AM 39.1478 -78.2947 103° East 363 418 16,500 -1,091 Descending Washington Center
Mon 08:57:58 AM 39.1167 -78.1894 111° Southeast 336 387 15,700 -814 Descending Washington Center
Mon 08:58:55 AM 39.0219 -78.1406 158° South 294 338 14,900 -915 Descending Washington Center
Mon 08:59:56 AM 38.9500 -78.0872 150° Southeast 307 353 13,900 -843 Descending Washington Center
Mon 09:00:56 AM 38.9753 -77.9814 73° East 233 268 13,200 -694 Descending Washington Center
Mon 09:01:57 AM 39.0061 -77.8942 66° East 242 278 12,500 -839 Descending Washington Center
Mon 09:04:02 AM 38.9667 -77.6833 103° East 256 295 10,600 -941 Descending Potomac TRACON
Mon 09:05:02 AM 38.9500 -77.6000 104° East 251 289 9,600 -950 Descending Potomac TRACON
Mon 09:06:02 AM 38.9333 -77.5167 104° East 252 290 8,700 -842 Descending Potomac TRACON
Mon 09:06:56 AM 38.9000 -77.4333 117° Southeast 252 290 8,000 -1,000 Descending Potomac TRACON
Mon 09:07:56 AM 38.8667 -77.3667 123° Southeast 256 295 6,800 -1,000 Descending Potomac TRACON
Mon 09:08:56 AM 38.8333 -77.2833 117° Southeast 242 278 6,000 -421 Descending Potomac TRACON
Mon 09:09:50 AM 38.8167 -77.2167 108° East 237 273 6,000  Level Potomac TRACON
Mon 09:10:50 AM 38.7833 -77.1500 123° Southeast 238 274 6,000 -150 Level Potomac TRACON
Mon 09:11:50 AM 38.7167 -77.1167 159° South 222 255 5,700 -522 Descending Potomac TRACON
Mon 09:12:45 AM 38.6667 -77.1000 165° South 215 247 5,000 -365 Descending Potomac TRACON
Mon 09:13:45 AM 38.6167 -77.1000 180° South 217 250 5,000  Level Potomac TRACON
Mon 09:14:45 AM 38.5667 -77.1000 180° South 176 203 5,000 -500 Level Potomac TRACON
Mon 09:15:45 AM 38.5333 -77.0500 130° Southeast 183 211 4,000 -1,053 Descending Potomac TRACON
Mon 09:16:39 AM 38.5500 -77.0167 57° Northeast 206 237 3,000 -526 Descending Potomac TRACON
Mon 09:17:39 AM 38.6000 -77.0167 360° North 188 216 3,000 -50 Level Potomac TRACON
Mon 09:18:39 AM 38.6500 -77.0167 360° North 184 212 2,900 -100 Descending Potomac TRACON

Login

Don't have an account? Register now (free) for customized features, flight alerts, and more!